Time;durP1;ratioP1;P1;durP2;ratioP2;P2;SDS_P1;SDS_P2;PMS_P1;PMS_P2;Temp;Humidity;BMP_temperature;BMP_pressure;BME280_temperature;BME280_humidity;BME280_pressure;Samples;Min_cycle;Max_cycle;Signal;HPM_P1;HPM_P2
2022/01/22 00:01:38;;;;;;;5.07;2.30;;;;;;;-8.85;94.91;90917.69;5070799;28;20082;-63
2022/01/22 00:04:03;;;;;;;3.85;2.45;;;;;;;-8.78;93.95;90903.06;5070714;28;20028;-63
2022/01/22 00:06:29;;;;;;;4.75;2.53;;;;;;;-8.86;93.70;90910.97;5070542;28;20109;-64
2022/01/22 00:08:54;;;;;;;5.35;3.30;;;;;;;-8.90;93.91;90911.56;5070681;28;20060;-64
2022/01/22 00:11:20;;;;;;;7.28;2.92;;;;;;;-8.86;93.16;90908.38;5070514;28;20031;-64
2022/01/22 00:16:29;;;;;;;4.20;2.75;;;;;;;-8.99;93.51;90903.22;5070437;28;20047;-64
2022/01/22 00:18:55;;;;;;;5.45;2.88;;;;;;;-8.92;92.39;90901.44;5070614;28;20032;-63
2022/01/22 00:21:20;;;;;;;2.78;2.20;;;;;;;-8.89;92.57;90906.19;5070636;28;20402;-64
2022/01/22 00:23:55;;;;;;;7.40;2.95;;;;;;;-8.97;93.25;90905.59;5071022;28;20033;-63
2022/01/22 00:26:21;;;;;;;5.13;2.72;;;;;;;-9.04;93.79;90897.81;5070322;28;20028;-64
2022/01/22 00:28:47;;;;;;;6.43;3.13;;;;;;;-8.97;95.48;90901.22;5070695;28;20036;-63
2022/01/22 00:31:12;;;;;;;9.63;4.93;;;;;;;-8.78;94.43;90903.06;5070479;28;20410;-63
2022/01/22 00:33:38;;;;;;;7.70;4.07;;;;;;;-8.81;93.69;90905.25;5070470;28;20029;-63
2022/01/22 00:36:04;;;;;;;12.18;4.68;;;;;;;-8.91;93.65;90892.72;5070265;28;20032;-64
2022/01/22 00:38:29;;;;;;;10.73;4.75;;;;;;;-8.96;93.69;90902.81;5070369;28;20418;-63
2022/01/22 00:40:55;;;;;;;7.35;3.83;;;;;;;-9.08;94.54;90894.06;5070557;28;20055;-63
2022/01/22 00:43:21;;;;;;;8.02;4.07;;;;;;;-9.14;96.85;90890.47;5074053;28;20029;-63
2022/01/22 00:45:46;;;;;;;6.22;2.88;;;;;;;-9.06;98.89;90890.28;5074080;28;20048;-63
2022/01/22 00:48:12;;;;;;;6.78;3.10;;;;;;;-9.09;99.97;90882.94;5073811;28;20087;-64
2022/01/22 00:50:37;;;;;;;6.60;3.30;;;;;;;-9.01;100.00;90889.69;5073699;28;20140;-63
2022/01/22 00:53:03;;;;;;;5.03;3.28;;;;;;;-8.89;100.00;90885.59;5074105;28;20079;-64
2022/01/22 00:55:29;;;;;;;6.60;3.08;;;;;;;-8.90;100.00;90891.72;5073857;28;20426;-63
2022/01/22 00:57:55;;;;;;;6.15;2.95;;;;;;;-9.00;100.00;90895.66;5073928;28;20033;-63
2022/01/22 01:00:20;;;;;;;6.85;2.80;;;;;;;-8.81;100.00;90894.94;5073786;28;20135;-63
2022/01/22 01:02:47;;;;;;;5.78;2.53;;;;;;;-8.86;100.00;90892.91;5073792;28;20036;-63
2022/01/22 01:05:13;;;;;;;3.42;2.20;;;;;;;-8.82;99.93;90883.03;5073688;28;20085;-63
2022/01/22 01:07:39;;;;;;;6.47;2.97;;;;;;;-8.88;100.00;90886.38;5073641;28;20039;-63
2022/01/22 01:10:07;;;;;;;3.33;2.22;;;;;;;-8.81;100.00;90885.41;5073693;28;20417;-63
2022/01/22 01:12:34;;;;;;;5.32;2.22;;;;;;;-8.82;99.31;90876.09;5073575;28;20047;-63
2022/01/22 01:15:14;;;;;;;2.45;2.15;;;;;;;-8.80;98.17;90876.69;5073542;28;20028;-64
2022/01/22 01:34:16;;;;;;;3.33;2.22;;;;;;;-8.52;94.54;90861.06;5073555;28;20146;-64
2022/01/22 01:36:43;;;;;;;3.35;2.15;;;;;;;-8.47;93.25;90863.03;5073077;28;20082;-64
2022/01/22 01:39:12;;;;;;;3.28;2.10;;;;;;;-8.34;92.00;90851.94;5073149;28;20100;-64
2022/01/22 01:44:13;;;;;;;4.30;2.13;;;;;;;-8.44;91.54;90849.75;5073350;28;20033;-63
2022/01/22 01:46:46;;;;;;;5.88;2.33;;;;;;;-8.43;91.03;90853.91;5072973;28;20024;-64
2022/01/22 01:49:13;;;;;;;1.73;1.50;;;;;;;-8.46;90.27;90839.63;5072709;28;20049;-64
2022/01/22 01:51:39;;;;;;;4.32;2.28;;;;;;;-8.47;90.29;90834.69;5072952;28;20024;-63
2022/01/22 01:54:28;;;;;;;3.65;2.35;;;;;;;-8.40;89.69;90845.78;5071971;28;20033;-64
2022/01/22 01:59:42;;;;;;;5.55;1.75;;;;;;;-8.43;89.00;90835.06;5073029;28;20579;-63
2022/01/22 02:02:08;;;;;;;2.55;1.83;;;;;;;-8.42;89.24;90828.91;5072667;28;20029;-63
2022/01/22 02:04:33;;;;;;;3.72;2.13;;;;;;;-8.47;89.13;90834.69;5072602;28;20033;-63
2022/01/22 02:06:59;;;;;;;4.78;2.35;;;;;;;-8.46;89.95;90831.09;5072504;28;20190;-64
2022/01/22 02:09:25;;;;;;;5.68;2.60;;;;;;;-8.57;90.73;90823.94;5072841;28;20546;-63
2022/01/22 02:11:59;;;;;;;4.25;2.17;;;;;;;-8.62;91.25;90816.81;5073216;28;20037;-63
2022/01/22 02:25:28;;;;;;;4.28;2.22;;;;;;;-8.84;95.44;90821.34;5072500;28;20410;-63
2022/01/22 02:27:54;;;;;;;5.30;2.00;;;;;;;-8.89;96.37;90816.00;5072077;28;20017;-63
2022/01/22 02:30:23;;;;;;;3.83;2.10;;;;;;;-8.94;97.53;90813.22;5072673;28;20547;-63
2022/01/22 02:35:58;;;;;;;3.17;1.95;;;;;;;-9.09;99.71;90808.22;5071866;28;20067;-64
2022/01/22 02:38:41;;;;;;;5.30;2.30;;;;;;;-9.06;99.42;90812.19;5071819;28;20028;-63
2022/01/22 02:41:13;;;;;;;7.82;2.35;;;;;;;-9.04;99.45;90807.63;5071952;28;20063;-63
2022/01/22 02:43:38;;;;;;;2.75;2.28;;;;;;;-9.02;99.65;90815.97;5071902;28;20024;-64
2022/01/22 02:46:04;;;;;;;3.75;1.95;;;;;;;-9.08;100.00;90821.91;5071807;28;20040;-64
2022/01/22 02:48:29;;;;;;;2.20;1.27;;;;;;;-8.93;100.00;90819.97;5071631;28;20044;-64
2022/01/22 02:50:55;;;;;;;6.20;1.95;;;;;;;-8.78;99.19;90820.56;5071791;28;20387;-64
2022/01/22 02:53:20;;;;;;;3.13;1.70;;;;;;;-8.64;97.91;90812.84;5071743;28;20093;-64
2022/01/22 02:55:46;;;;;;;4.25;2.03;;;;;;;-8.52;97.14;90813.81;5071557;28;20031;-64
2022/01/22 02:58:12;;;;;;;4.15;1.80;;;;;;;-8.47;95.75;90806.31;5071914;28;20107;-64
2022/01/22 03:00:38;;;;;;;5.72;1.90;;;;;;;-8.59;96.05;90820.78;5071552;28;20036;-64
2022/01/22 03:03:05;;;;;;;2.92;1.70;;;;;;;-8.72;97.30;90818.19;5071561;28;20028;-64
2022/01/22 03:05:30;;;;;;;6.22;2.03;;;;;;;-8.81;97.91;90820.19;5210873;22;20614;-65
2022/01/22 03:07:58;;;;;;;4.18;2.30;;;;;;;-8.89;98.90;90816.00;5051644;28;20025;-63
2022/01/22 03:10:26;;;;;;;3.38;2.38;;;;;;;-8.87;99.88;90813.22;5051497;28;20039;-65
2022/01/22 03:18:05;;;;;;;2.60;1.50;;;;;;;-8.47;95.83;90807.09;5051727;28;20090;-65
2022/01/22 03:20:48;;;;;;;2.00;1.80;;;;;;;-8.39;96.49;90800.94;5051314;28;20033;-65
2022/01/22 03:28:59;;;;;;;2.40;1.70;;;;;;;-8.24;94.61;90801.47;5051566;28;20423;-65
2022/01/22 03:31:24;;;;;;;3.22;1.77;;;;;;;-8.19;92.93;90803.47;5051305;28;20050;-65
2022/01/22 03:33:50;;;;;;;4.43;2.10;;;;;;;-8.16;92.09;90796.13;5051326;28;20167;-65
2022/01/22 03:36:16;;;;;;;2.75;1.50;;;;;;;-8.15;91.81;90797.72;5051021;28;20032;-65
2022/01/22 03:38:42;;;;;;;3.70;1.75;;;;;;;-8.20;91.09;90797.53;5051278;28;20033;-65
2022/01/22 03:41:08;;;;;;;2.40;1.90;;;;;;;-8.23;90.35;90782.44;5051098;28;20071;-65
2022/01/22 03:43:33;;;;;;;3.72;1.92;;;;;;;-8.22;90.33;90784.00;5051159;28;20470;-65
2022/01/22 03:45:59;;;;;;;5.20;2.72;;;;;;;-8.19;89.78;90777.69;5051020;28;20541;-65
2022/01/22 03:48:24;;;;;;;3.35;2.05;;;;;;;-8.31;89.38;90781.88;5051420;28;20514;-65
2022/01/22 03:50:50;;;;;;;4.78;1.50;;;;;;;-8.34;89.85;90772.78;5049768;28;20043;-65
2022/01/22 03:53:17;;;;;;;6.20;2.00;;;;;;;-8.42;89.88;90774.75;5050931;28;20028;-65
2022/01/22 03:58:14;;;;;;;2.60;2.40;;;;;;;-8.40;91.01;90781.28;5051158;28;20126;-65
2022/01/22 04:00:39;;;;;;;2.47;1.58;;;;;;;-8.24;91.35;90780.06;5050921;28;20076;-64
2022/01/22 04:05:32;;;;;;;6.18;2.05;;;;;;;-8.27;90.84;90773.50;5050513;28;20049;-64
2022/01/22 04:10:26;;;;;;;6.15;1.90;;;;;;;-8.21;91.48;90777.84;5051060;28;20036;-64
2022/01/22 04:13:01;;;;;;;4.07;2.10;;;;;;;-8.28;92.27;90771.13;5050759;28;20021;-64
2022/01/22 04:15:29;;;;;;;4.55;2.47;;;;;;;-8.24;92.45;90773.09;5050946;28;20021;-64
2022/01/22 04:28:56;;;;;;;7.00;2.92;;;;;;;-8.19;93.51;90759.63;5016915;28;20045;-64
2022/01/22 04:31:22;;;;;;;5.10;2.05;;;;;;;-8.34;93.81;90757.28;5054340;28;20029;-64
2022/01/22 04:33:48;;;;;;;3.75;1.88;;;;;;;-8.36;94.01;90766.19;5054471;28;20040;-65
2022/01/22 04:36:13;;;;;;;3.47;1.63;;;;;;;-8.36;94.06;90766.19;5054282;28;20021;-64
2022/01/22 04:38:39;;;;;;;5.82;2.83;;;;;;;-8.32;93.08;90764.81;5054416;28;20109;-65
2022/01/22 04:41:05;;;;;;;16.73;6.13;;;;;;;-8.44;92.88;90762.06;5054446;28;20067;-64
2022/01/22 04:43:33;;;;;;;3.35;1.77;;;;;;;-8.47;92.80;90759.88;5054426;28;20029;-64
2022/01/22 04:46:20;;;;;;;2.60;1.95;;;;;;;-8.53;92.45;90750.34;5054134;28;20025;-64
2022/01/22 04:49:05;;;;;;;2.65;1.67;;;;;;;-8.49;91.16;90769.63;5054902;28;20072;-64
2022/01/22 04:56:59;;;;;;;5.82;3.80;;;;;;;-8.66;92.49;90760.69;5054026;28;20060;-64
2022/01/22 04:59:24;;;;;;;6.57;2.30;;;;;;;-8.66;92.02;90763.28;5054076;28;20072;-64
2022/01/22 05:01:50;;;;;;;3.50;2.15;;;;;;;-8.74;90.86;90753.16;5054012;28;20021;-64
2022/01/22 05:04:15;;;;;;;6.18;2.40;;;;;;;-8.69;88.92;90743.03;5053863;28;20413;-64
2022/01/22 05:06:41;;;;;;;12.95;4.57;;;;;;;-8.69;87.68;90732.72;5053714;28;20045;-65
2022/01/22 05:09:06;;;;;;;3.08;2.45;;;;;;;-8.57;87.08;90731.13;5053911;28;20029;-64
2022/01/22 05:11:32;;;;;;;7.95;3.53;;;;;;;-8.49;84.95;90736.88;5054035;28;20052;-64
2022/01/22 05:13:57;;;;;;;5.80;3.30;;;;;;;-8.42;84.73;90736.84;5053764;28;20043;-64
2022/01/22 05:16:24;;;;;;;6.13;2.83;;;;;;;-8.38;83.80;90740.63;5053573;28;20049;-64
2022/01/22 05:18:58;;;;;;;3.15;2.42;;;;;;;-8.15;83.45;90735.00;5053640;28;20039;-64
2022/01/22 05:21:25;;;;;;;3.35;2.78;;;;;;;-7.82;81.58;90731.53;5053750;28;20028;-64
2022/01/22 05:23:53;;;;;;;7.55;2.30;;;;;;;-7.57;80.09;90717.72;5053578;28;20021;-64
2022/01/22 05:26:50;;;;;;;6.05;3.00;;;;;;;-7.48;79.95;90722.63;5053438;28;20083;-64
2022/01/22 05:29:25;;;;;;;2.42;1.80;;;;;;;-7.46;81.24;90728.38;5051937;28;20426;-64
2022/01/22 05:37:01;;;;;;;2.15;1.67;;;;;;;-7.24;79.92;90737.41;5053581;28;20104;-64
2022/01/22 05:39:29;;;;;;;2.58;1.80;;;;;;;-7.30;81.01;90739.00;5053313;28;20033;-64
2022/01/22 05:41:56;;;;;;;1.92;1.63;;;;;;;-7.34;82.83;90737.06;5053311;28;20029;-64
2022/01/22 05:44:21;;;;;;;3.95;2.30;;;;;;;-7.36;83.24;90719.19;5053137;28;20487;-64
2022/01/22 05:46:48;;;;;;;6.03;2.78;;;;;;;-7.36;83.61;90720.97;5053226;28;20032;-64
2022/01/22 05:49:13;;;;;;;9.40;3.00;;;;;;;-7.43;84.23;90712.44;5053153;28;20032;-64
2022/01/22 05:51:41;;;;;;;5.05;2.67;;;;;;;-7.36;84.67;90716.59;5053123;28;20418;-64
2022/01/22 05:59:36;;;;;;;11.90;4.32;;;;;;;-7.42;88.06;90716.63;5053048;28;20110;-64
2022/01/22 06:02:02;;;;;;;6.45;3.08;;;;;;;-7.37;88.27;90711.63;5052949;28;20021;-64
2022/01/22 06:04:28;;;;;;;5.90;3.50;;;;;;;-7.27;88.14;90712.75;5052550;28;20029;-65
2022/01/22 06:06:53;;;;;;;8.63;4.55;;;;;;;-7.22;88.14;90709.56;5052832;28;20131;-64
2022/01/22 06:09:19;;;;;;;11.15;3.70;;;;;;;-7.23;87.97;90722.69;5052756;28;20133;-64
2022/01/22 06:11:58;;;;;;;5.82;3.17;;;;;;;-7.46;89.74;90733.53;5052733;28;20037;-64
2022/01/22 06:14:24;;;;;;;3.75;2.53;;;;;;;-7.51;93.32;90716.06;5052551;28;20087;-64
2022/01/22 06:16:49;;;;;;;5.45;2.60;;;;;;;-7.39;92.97;90714.44;5052950;28;20033;-64
2022/01/22 06:19:15;;;;;;;7.38;4.35;;;;;;;-7.16;90.09;90700.97;5052807;28;20044;-64
2022/01/22 06:21:41;;;;;;;5.07;3.78;;;;;;;-7.12;87.13;90704.72;5052550;28;20033;-64
2022/01/22 06:24:07;;;;;;;3.97;2.08;;;;;;;-6.95;83.96;90707.56;5052356;28;20487;-65
2022/01/22 06:26:33;;;;;;;5.70;2.58;;;;;;;-6.82;80.83;90714.44;5052330;28;20032;-64
2022/01/22 06:28:59;;;;;;;4.10;2.50;;;;;;;-6.84;81.22;90716.44;5052259;28;20032;-65
2022/01/22 06:31:25;;;;;;;7.43;3.63;;;;;;;-6.90;81.82;90715.50;5048598;28;20029;-66
2022/01/22 06:33:50;;;;;;;5.82;3.58;;;;;;;-6.82;83.71;90714.44;5046027;28;20060;-67
2022/01/22 06:36:16;;;;;;;4.03;2.58;;;;;;;-6.90;84.66;90712.13;5040469;28;20060;-67
2022/01/22 06:38:41;;;;;;;4.50;2.95;;;;;;;-6.91;84.19;90710.56;5042552;28;20071;-66
2022/01/22 06:43:51;;;;;;;8.57;3.20;;;;;;;-6.81;85.92;90716.03;5042947;28;20470;-65
2022/01/22 06:46:17;;;;;;;6.65;3.25;;;;;;;-6.68;86.02;90701.19;5036268;28;20028;-67
2022/01/22 06:48:42;;;;;;;6.65;3.00;;;;;;;-6.57;85.14;90689.38;5048512;28;20060;-67
2022/01/22 06:51:08;;;;;;;7.07;4.40;;;;;;;-6.47;83.66;90691.47;5050679;28;20112;-67
2022/01/22 06:53:40;;;;;;;7.68;4.47;;;;;;;-6.44;82.65;90683.28;5047761;28;20501;-67
2022/01/22 06:56:07;;;;;;;12.73;4.40;;;;;;;-6.29;81.88;90688.91;5035042;28;20025;-66
2022/01/22 06:58:33;;;;;;;9.85;4.72;;;;;;;-6.37;80.99;90702.13;5034200;28;20087;-66
2022/01/22 07:00:59;;;;;;;13.00;5.15;;;;;;;-6.42;81.47;90684.66;5034911;28;20033;-66
2022/01/22 07:03:25;;;;;;;9.52;3.83;;;;;;;-6.46;83.40;90699.03;5041015;28;20041;-66
2022/01/22 07:05:51;;;;;;;7.25;3.80;;;;;;;-6.22;83.10;90714.72;5050846;28;20128;-66
2022/01/22 07:08:16;;;;;;;10.35;4.30;;;;;;;-5.95;81.36;90713.47;5050378;28;20120;-67
2022/01/22 07:10:42;;;;;;;7.70;3.20;;;;;;;-5.83;80.52;90687.63;5051211;28;20062;-67
2022/01/22 07:13:08;;;;;;;8.63;2.70;;;;;;;-5.48;79.58;90708.50;5047456;28;20037;-67
2022/01/22 07:15:33;;;;;;;7.85;4.32;;;;;;;-5.26;77.07;90704.41;5038833;28;20018;-67
2022/01/22 07:18:01;;;;;;;6.15;3.47;;;;;;;-5.20;74.16;90700.19;5034993;28;20057;-68
2022/01/22 07:20:29;;;;;;;6.10;3.55;;;;;;;-5.02;72.09;90699.31;5041848;28;20029;-67
2022/01/22 07:23:12;;;;;;;6.30;2.92;;;;;;;-4.84;70.58;90697.44;5031792;28;20053;-67
2022/01/22 07:25:39;;;;;;;7.30;3.80;;;;;;;-4.21;69.60;90706.44;5046759;28;20064;-67
2022/01/22 07:28:05;;;;;;;7.07;2.53;;;;;;;-3.82;67.81;90709.34;5050635;28;20052;-66
2022/01/22 07:30:31;;;;;;;6.68;3.80;;;;;;;-4.04;67.85;90699.53;5049946;28;20032;-67
2022/01/22 07:32:57;;;;;;;7.28;3.15;;;;;;;-3.77;66.91;90704.25;5049011;28;20532;-67
2022/01/22 07:35:22;;;;;;;8.20;4.07;;;;;;;-3.86;66.83;90700.44;5050588;28;20082;-66
2022/01/22 07:37:48;;;;;;;8.50;4.72;;;;;;;-3.62;64.59;90696.78;5050026;28;20029;-67
2022/01/22 07:40:17;;;;;;;11.82;4.60;;;;;;;-3.28;63.33;90696.91;5051223;28;20061;-68
2022/01/22 07:42:50;;;;;;;11.18;5.28;;;;;;;-3.15;63.34;90700.03;5052634;28;20099;-69
2022/01/22 07:45:16;;;;;;;17.35;6.68;;;;;;;-3.45;63.12;90686.44;5052020;28;20061;-68
2022/01/22 07:47:41;;;;;;;10.52;5.25;;;;;;;-3.39;63.35;90681.09;5052994;28;20042;-68
2022/01/22 07:50:12;;;;;;;10.13;4.88;;;;;;;-3.71;62.66;90669.56;5050536;28;20036;-68
2022/01/22 07:52:38;;;;;;;8.68;4.40;;;;;;;-4.01;62.35;90678.28;5050377;28;20036;-67
2022/01/22 07:55:06;;;;;;;10.10;5.50;;;;;;;-2.95;62.02;90652.75;5050751;28;20498;-67
2022/01/22 07:57:32;;;;;;;23.83;9.27;;;;;;;0.21;54.22;90667.63;5050608;28;20554;-68
2022/01/22 07:59:57;;;;;;;8.27;4.40;;;;;;;1.29;51.11;90667.81;5049755;28;20112;-68
2022/01/22 08:02:23;;;;;;;18.85;7.88;;;;;;;0.79;49.74;90664.00;5050415;28;20060;-67
2022/01/22 08:04:48;;;;;;;8.27;4.80;;;;;;;4.19;46.42;90659.03;5050052;28;20045;-68
2022/01/22 08:07:14;;;;;;;7.30;3.78;;;;;;;4.10;42.85;90658.84;5050107;28;20132;-68
2022/01/22 08:09:39;;;;;;;4.38;3.30;;;;;;;2.42;45.05;90655.47;5048887;28;20112;-69
2022/01/22 08:12:05;;;;;;;5.00;3.60;;;;;;;0.38;48.05;90656.97;5050412;28;20041;-68
2022/01/22 08:14:31;;;;;;;7.53;4.20;;;;;;;-0.92;51.68;90650.28;5045753;28;20033;-70
2022/01/22 08:16:56;;;;;;;10.05;4.40;;;;;;;-1.61;53.76;90657.06;5050046;28;20045;-68
2022/01/22 08:19:23;;;;;;;2.83;2.20;;;;;;;-2.43;54.30;90644.72;5050399;28;20041;-68
2022/01/22 08:21:49;;;;;;;2.53;2.20;;;;;;;-3.09;55.46;90654.88;5050695;28;20486;-67
2022/01/22 08:24:16;;;;;;;14.10;6.05;;;;;;;-3.37;57.74;90640.06;5038846;28;20041;-68
2022/01/22 08:26:49;;;;;;;4.88;2.28;;;;;;;-3.33;57.11;90640.38;5030268;28;20041;-67
2022/01/22 08:29:16;;;;;;;5.72;3.25;;;;;;;-3.10;57.85;90644.69;5030057;28;20064;-67
2022/01/22 08:31:52;;;;;;;18.55;9.63;;;;;;;-3.75;59.67;90647.66;5030032;28;20033;-67
2022/01/22 08:37:02;;;;;;;5.85;2.78;;;;;;;-3.98;60.76;90648.47;5029844;28;20104;-67
2022/01/22 08:39:28;;;;;;;5.78;2.63;;;;;;;-4.31;62.42;90652.47;5029988;28;20483;-66
2022/01/22 08:41:54;;;;;;;30.13;12.52;;;;;;;-4.55;64.50;90654.28;5030544;28;20033;-66
2022/01/22 08:44:19;;;;;;;17.90;8.07;;;;;;;-4.89;65.63;90647.22;5029430;28;20092;-65
2022/01/22 08:46:45;;;;;;;108.38;25.85;;;;;;;-4.70;66.32;90659.13;5033309;28;20483;-68
2022/01/22 08:49:12;;;;;;;8.43;3.08;;;;;;;-4.45;65.45;90666.69;5030405;28;20125;-68
2022/01/22 08:51:38;;;;;;;156.85;41.15;;;;;;;-4.23;65.86;90667.72;5029640;28;20045;-68
2022/01/22 08:54:05;;;;;;;10.85;5.03;;;;;;;-4.00;65.42;90651.31;5030245;28;20034;-69
2022/01/22 08:56:30;;;;;;;12.52;4.63;;;;;;;-3.46;65.32;90656.28;5030346;28;20036;-67
2022/01/22 08:58:57;;;;;;;4.13;3.20;;;;;;;-2.45;62.30;90638.97;5029551;28;20037;-67
2022/01/22 09:01:24;;;;;;;5.63;3.00;;;;;;;-1.86;60.61;90636.69;5030054;28;20121;-67
2022/01/22 09:03:50;;;;;;;3.40;2.92;;;;;;;0.71;55.21;90642.75;5032905;28;20823;-67
2022/01/22 09:06:17;;;;;;;3.95;2.28;;;;;;;1.53;51.11;90622.75;5033521;28;20057;-67
2022/01/22 09:08:45;;;;;;;8.88;3.17;;;;;;;2.24;50.00;90620.88;5033182;28;20045;-68
2022/01/22 09:11:11;;;;;;;18.50;7.43;;;;;;;3.42;48.76;90623.78;5033620;28;20454;-67
2022/01/22 09:13:37;;;;;;;6.80;3.33;;;;;;;2.90;47.21;90620.66;5032794;28;20084;-69
2022/01/22 09:16:02;;;;;;;9.52;4.80;;;;;;;1.36;49.07;90629.03;5032347;28;20037;-67
2022/01/22 09:18:28;;;;;;;7.03;3.50;;;;;;;0.55;49.94;90629.59;5033151;28;20033;-65
2022/01/22 09:23:19;;;;;;;6.43;3.90;;;;;;;1.24;50.18;90633.72;5033048;28;20483;-67
2022/01/22 09:25:45;;;;;;;3.63;2.90;;;;;;;-0.24;52.49;90634.13;5032976;28;20044;-67
2022/01/22 09:28:13;;;;;;;6.72;3.28;;;;;;;0.87;52.54;90633.91;5033037;28;20037;-68
2022/01/22 09:30:40;;;;;;;13.32;8.93;;;;;;;2.82;47.51;90626.47;5032467;28;20410;-67
2022/01/22 09:33:06;;;;;;;8.50;4.13;;;;;;;2.57;46.89;90629.19;5033082;28;20091;-67
2022/01/22 09:35:32;;;;;;;18.35;15.18;;;;;;;2.99;46.00;90626.91;5032904;28;20041;-68
2022/01/22 09:37:57;;;;;;;4.72;3.15;;;;;;;1.21;49.70;90634.25;5032537;28;20044;-68
2022/01/22 09:40:28;;;;;;;4.15;3.67;;;;;;;0.80;49.31;90631.53;5032918;28;20075;-68
2022/01/22 09:42:54;;;;;;;4.18;2.90;;;;;;;1.41;49.51;90615.13;5032665;28;20025;-68
2022/01/22 09:45:21;;;;;;;5.43;3.53;;;;;;;2.96;45.82;90626.66;5032138;28;20060;-68
2022/01/22 09:47:49;;;;;;;7.78;3.20;;;;;;;3.75;45.47;90623.03;5033062;28;20029;-68
2022/01/22 09:50:21;;;;;;;43.28;17.90;;;;;;;4.55;45.21;90619.19;5032787;28;20037;-68
2022/01/22 09:52:49;;;;;;;35.33;12.02;;;;;;;2.49;46.12;90611.34;5032239;28;20030;-68
2022/01/22 09:55:16;;;;;;;2.90;2.40;;;;;;;0.56;49.85;90617.28;5032322;28;20047;-67
2022/01/22 09:57:44;;;;;;;4.72;3.50;;;;;;;-0.55;53.94;90623.44;5032745;28;20109;-67
2022/01/22 10:00:12;;;;;;;31.25;14.15;;;;;;;-1.03;55.29;90621.69;5040704;28;20495;-67
2022/01/22 10:02:43;;;;;;;5.30;2.60;;;;;;;-2.68;58.83;90602.66;5036248;28;20088;-67
2022/01/22 10:05:28;;;;;;;4.68;2.42;;;;;;;-2.87;61.45;90613.31;5032299;28;20065;-66
2022/01/22 10:07:54;;;;;;;3.95;2.92;;;;;;;-2.72;62.98;90618.78;5032221;28;20030;-66
2022/01/22 10:10:20;;;;;;;5.78;4.05;;;;;;;-2.71;64.34;90611.75;5032360;28;20044;-67
2022/01/22 10:12:52;;;;;;;5.25;3.78;;;;;;;-1.02;60.27;90605.78;5032294;28;20042;-66
2022/01/22 10:15:39;;;;;;;14.40;6.32;;;;;;;-0.35;57.64;90607.91;5031333;28;20030;-66
2022/01/22 10:18:06;;;;;;;7.00;3.35;;;;;;;-0.65;56.54;90602.44;5032104;28;20030;-68
2022/01/22 10:20:36;;;;;;;4.75;3.47;;;;;;;2.04;52.96;90569.22;5031938;28;20032;-68
2022/01/22 10:23:21;;;;;;;4.88;3.05;;;;;;;2.27;50.59;90594.09;5032123;28;20033;-68
2022/01/22 10:25:56;;;;;;;4.07;2.00;;;;;;;1.89;51.50;90578.94;5031962;28;20534;-68
2022/01/22 10:28:25;;;;;;;7.65;3.55;;;;;;;3.67;47.73;90583.41;5031183;28;20025;-69
2022/01/22 10:31:07;;;;;;;4.75;3.00;;;;;;;4.26;45.30;90575.25;5031715;28;20108;-67
2022/01/22 10:33:34;;;;;;;2.80;2.38;;;;;;;3.01;46.55;90579.38;5032297;28;20033;-70
2022/01/22 10:36:16;;;;;;;4.55;2.92;;;;;;;4.40;44.79;90577.97;5031515;28;20502;-68
2022/01/22 10:38:44;;;;;;;4.10;3.00;;;;;;;6.04;45.45;90572.91;5031876;28;20044;-69
2022/01/22 10:41:12;;;;;;;5.15;3.15;;;;;;;5.36;45.22;90568.09;5032032;28;20034;-68
2022/01/22 10:43:43;;;;;;;3.30;2.50;;;;;;;5.73;44.75;90562.03;5030745;28;20029;-69
2022/01/22 10:48:52;;;;;;;5.20;3.35;;;;;;;4.49;47.87;90574.47;5031797;28;20038;-68
2022/01/22 10:51:18;;;;;;;6.78;4.80;;;;;;;3.60;46.89;90568.69;5031256;28;20037;-67
2022/01/22 10:54:01;;;;;;;6.97;3.90;;;;;;;4.86;49.05;90548.47;5031931;28;20029;-68
2022/01/22 10:56:31;;;;;;;18.23;9.18;;;;;;;6.06;47.92;90535.66;5031240;28;20033;-70
2022/01/22 10:59:06;;;;;;;10.35;6.25;;;;;;;3.63;50.73;90548.97;5030644;28;20402;-68
2022/01/22 11:01:43;;;;;;;13.75;7.28;;;;;;;4.01;52.48;90546.53;5031578;28;20053;-67
2022/01/22 11:04:11;;;;;;;4.15;2.95;;;;;;;5.01;48.44;90530.63;5031407;28;20038;-70
2022/01/22 11:06:39;;;;;;;4.90;3.30;;;;;;;4.29;48.24;90543.09;5030765;28;20136;-71
2022/01/22 11:09:07;;;;;;;8.38;3.53;;;;;;;2.45;50.16;90537.59;5031044;28;20179;-71
2022/01/22 11:11:37;;;;;;;4.93;3.45;;;;;;;0.56;53.62;90526.47;5035884;28;20537;-70
2022/01/22 11:14:08;;;;;;;5.15;3.90;;;;;;;2.53;51.11;90534.44;5050784;28;20029;-68
2022/01/22 11:16:34;;;;;;;3.15;2.85;;;;;;;2.89;48.56;90536.88;5056057;28;20480;-68
2022/01/22 11:19:01;;;;;;;5.03;2.88;;;;;;;-0.79;52.82;90544.63;5051159;28;20090;-69
2022/01/22 11:21:28;;;;;;;7.13;3.08;;;;;;;0.19;55.09;90534.47;5051165;28;20044;-69
2022/01/22 11:23:54;;;;;;;6.38;3.30;;;;;;;0.90;54.92;90531.25;5050357;28;20043;-69
2022/01/22 11:26:20;;;;;;;5.35;2.80;;;;;;;-1.08;54.63;90528.47;5050825;28;20033;-67
2022/01/22 11:28:48;;;;;;;5.60;3.17;;;;;;;-2.63;58.32;90527.28;5050376;28;20027;-68
2022/01/22 11:31:16;;;;;;;3.85;3.08;;;;;;;-3.21;59.55;90524.06;5050469;28;20033;-68
2022/01/22 11:33:45;;;;;;;11.20;6.00;;;;;;;-1.01;57.60;90521.22;5050866;28;20029;-68
2022/01/22 11:36:19;;;;;;;6.97;3.50;;;;;;;-0.37;55.50;90521.13;5050612;28;20490;-69
2022/01/22 11:38:52;;;;;;;6.60;3.63;;;;;;;0.32;52.63;90517.53;5048113;28;20037;-69
2022/01/22 11:41:22;;;;;;;4.40;3.00;;;;;;;1.73;51.45;90508.16;5037628;28;20037;-70
2022/01/22 11:46:36;;;;;;;4.18;2.90;;;;;;;3.38;47.46;90507.09;5030540;28;20033;-72
2022/01/22 11:49:28;;;;;;;4.97;3.00;;;;;;;3.21;45.71;90503.03;5030270;28;20176;-68
2022/01/22 11:52:14;;;;;;;3.95;2.78;;;;;;;2.65;46.88;90495.47;5027901;28;20046;-68
2022/01/22 11:54:59;;;;;;;5.85;3.42;;;;;;;3.20;46.31;90498.81;5030481;28;20056;-68
2022/01/22 11:57:28;;;;;;;7.65;4.00;;;;;;;3.32;44.47;90505.59;5029930;28;20491;-69
2022/01/22 12:00:28;;;;;;;5.28;3.40;;;;;;;1.32;47.71;90496.19;5030219;28;20126;-67
2022/01/22 12:03:03;;;;;;;4.60;2.92;;;;;;;0.40;50.50;90490.84;5030488;28;20049;-68
2022/01/22 12:05:29;;;;;;;9.70;4.05;;;;;;;0.04;51.17;90486.56;5030160;28;20129;-68
2022/01/22 12:07:59;;;;;;;2.72;2.20;;;;;;;-0.98;53.63;90489.38;5030219;28;20029;-67
2022/01/22 12:10:41;;;;;;;10.57;5.28;;;;;;;-1.39;54.23;90484.88;5030554;28;20388;-66
2022/01/22 12:16:11;;;;;;;;;;;;;;;-0.77;54.17;90472.06;5030507;28;20168;-67
2022/01/22 12:18:44;;;;;;;4.40;2.60;;;;;;;-1.20;52.89;90480.88;5030263;28;20374;-68
2022/01/22 12:21:48;;;;;;;11.77;6.30;;;;;;;-1.20;53.13;90462.59;5030181;28;20112;-67
2022/01/22 12:24:32;;;;;;;;;;;;;;;-1.34;52.51;90475.28;4969688;28;20030;-67
2022/01/22 12:27:01;;;;;;;7.13;4.35;;;;;;;-0.85;51.46;90482.94;4968655;28;19918;-68
2022/01/22 12:29:27;;;;;;;9.23;4.75;;;;;;;-1.42;54.12;90482.75;5006412;28;20054;-66
2022/01/22 12:32:15;;;;;;;12.02;6.03;;;;;;;-1.06;55.31;90487.25;5030377;28;20026;-64
2022/01/22 12:34:55;;;;;;;13.77;6.85;;;;;;;-1.05;57.23;90481.00;5030037;28;20468;-64
2022/01/22 12:37:22;;;;;;;10.57;5.10;;;;;;;-1.29;58.19;90484.97;5030109;28;20070;-65
2022/01/22 12:39:52;;;;;;;3.90;3.25;;;;;;;-1.09;58.79;90479.13;5033742;28;20055;-68
2022/01/22 12:42:31;;;;;;;6.10;4.32;;;;;;;-1.69;59.64;90486.19;5048834;28;20060;-67
2022/01/22 12:45:03;;;;;;;7.45;4.45;;;;;;;-2.01;61.40;90485.31;5034193;28;20079;-64
2022/01/22 12:47:28;;;;;;;4.15;3.03;;;;;;;-2.29;64.46;90468.06;5033906;28;20041;-66
2022/01/22 12:50:04;;;;;;;6.35;3.90;;;;;;;-2.52;63.87;90472.50;5034159;28;20029;-65
2022/01/22 12:52:30;;;;;;;4.85;3.67;;;;;;;-2.16;63.26;90473.69;5030186;28;20096;-66
2022/01/22 12:54:58;;;;;;;6.32;3.22;;;;;;;-1.85;62.88;90479.22;5033949;28;20128;-66
2022/01/22 12:57:25;;;;;;;7.95;4.35;;;;;;;-1.56;61.14;90461.53;5033243;28;20044;-66
2022/01/22 13:00:30;;;;;;;11.20;4.72;;;;;;;-1.57;61.66;90471.19;5033383;28;20083;-66
2022/01/22 13:02:57;;;;;;;7.43;4.88;;;;;;;-1.92;62.26;90470.81;5029956;28;20407;-65
2022/01/22 13:05:25;;;;;;;6.78;4.40;;;;;;;-2.11;62.33;90471.13;5033359;28;20038;-67
2022/01/22 13:07:54;;;;;;;9.85;5.88;;;;;;;-1.90;61.77;90460.91;5033164;28;20033;-66
2022/01/22 13:10:26;;;;;;;7.38;5.18;;;;;;;-1.56;61.50;90470.13;5033637;28;20041;-66
2022/01/22 13:12:53;;;;;;;6.97;4.38;;;;;;;-1.20;60.47;90473.03;5031653;28;20037;-66
2022/01/22 13:15:19;;;;;;;5.78;2.72;;;;;;;-1.05;58.48;90478.38;5032456;28;20043;-65
2022/01/22 13:17:52;;;;;;;2.83;2.47;;;;;;;-1.17;58.07;90477.75;5032117;28;20034;-65
2022/01/22 13:20:29;;;;;;;32.70;18.03;;;;;;;-1.77;59.55;90481.38;5033506;28;20140;-65
2022/01/22 13:22:56;;;;;;;18.70;9.63;;;;;;;-2.29;61.70;90479.28;5032779;28;20907;-66